Time;durP1;ratioP1;P1;durP2;ratioP2;P2;SDS_P1;SDS_P2;PMS_P1;PMS_P2;Temp;Humidity;BMP_temperature;BMP_pressure;BME280_temperature;BME280_humidity;BME280_pressure;Samples;Min_cycle;Max_cycle;Signal;HPM_P1;HPM_P2
2021/07/05 00:02:22;;;;;;;3.70;3.28;;;19.90;87.30;;;;;;5022032;28;20072;-60
2021/07/05 00:04:48;;;;;;;8.90;3.45;;;19.90;87.40;;;;;;5009389;28;20030;-61
2021/07/05 00:07:14;;;;;;;7.85;3.00;;;19.90;87.50;;;;;;4989455;28;20030;-60
2021/07/05 00:09:40;;;;;;;6.30;2.97;;;19.80;87.50;;;;;;5023919;28;20030;-60
2021/07/05 00:12:05;;;;;;;2.88;2.65;;;19.80;87.60;;;;;;4993759;28;20050;-61
2021/07/05 00:14:32;;;;;;;3.65;2.90;;;19.80;87.80;;;;;;5024013;28;20045;-61
2021/07/05 00:16:57;;;;;;;4.97;2.80;;;19.80;87.80;;;;;;5009609;28;20084;-61
2021/07/05 00:19:23;;;;;;;5.35;2.70;;;19.80;87.80;;;;;;5008525;28;20085;-61
2021/07/05 00:21:48;;;;;;;4.63;2.50;;;19.80;88.00;;;;;;4997524;28;20050;-61
2021/07/05 00:24:14;;;;;;;4.60;2.42;;;19.80;88.00;;;;;;4987894;28;20041;-61
2021/07/05 00:26:39;;;;;;;3.60;2.60;;;19.80;88.10;;;;;;5013275;28;20046;-61
2021/07/05 00:29:05;;;;;;;3.35;2.50;;;19.70;88.00;;;;;;4988262;28;20077;-61
2021/07/05 00:31:30;;;;;;;3.03;2.72;;;19.70;88.10;;;;;;4995095;28;20038;-62
2021/07/05 00:33:56;;;;;;;6.13;2.67;;;19.70;88.10;;;;;;5009430;28;20078;-60
2021/07/05 00:36:21;;;;;;;2.80;2.17;;;19.70;88.10;;;;;;4996361;28;20113;-61
2021/07/05 00:38:47;;;;;;;3.72;2.10;;;19.70;88.20;;;;;;4976300;28;20162;-61
2021/07/05 00:41:12;;;;;;;4.13;2.03;;;19.70;88.10;;;;;;4997967;28;20033;-60
2021/07/05 00:43:38;;;;;;;3.78;2.47;;;19.70;88.30;;;;;;4991311;28;20537;-60
2021/07/05 00:46:03;;;;;;;3.35;2.20;;;19.70;88.40;;;;;;4996822;28;20274;-61
2021/07/05 00:48:29;;;;;;;5.03;2.00;;;19.60;89.00;;;;;;4995515;28;20359;-61
2021/07/05 00:50:54;;;;;;;3.35;1.92;;;19.60;88.30;;;;;;4996559;28;20383;-61
2021/07/05 00:53:20;;;;;;;2.45;1.95;;;19.60;89.00;;;;;;4993275;28;20030;-61
2021/07/05 00:55:45;;;;;;;3.20;2.00;;;19.60;88.50;;;;;;4995752;28;20089;-61
2021/07/05 00:58:11;;;;;;;4.43;1.90;;;19.60;88.40;;;;;;5008207;28;20026;-60
2021/07/05 01:00:36;;;;;;;6.75;2.00;;;19.60;88.50;;;;;;4997221;28;20500;-61
2021/07/05 01:03:02;;;;;;;4.97;1.92;;;19.60;88.50;;;;;;5009815;28;20030;-61
2021/07/05 01:05:28;;;;;;;2.63;1.95;;;19.50;88.50;;;;;;4996395;28;20030;-61
2021/07/05 01:07:54;;;;;;;2.10;1.90;;;19.50;88.50;;;;;;5006956;28;20077;-61
2021/07/05 01:10:20;;;;;;;3.17;1.75;;;19.50;88.50;;;;;;5009384;28;20018;-62
2021/07/05 01:12:46;;;;;;;4.75;1.73;;;19.50;88.60;;;;;;4994221;28;20041;-61
2021/07/05 01:15:15;;;;;;;3.65;1.67;;;19.50;88.70;;;;;;5008724;28;20026;-61
2021/07/05 01:17:41;;;;;;;3.55;1.73;;;19.50;88.70;;;;;;4985818;28;20403;-60
2021/07/05 01:20:08;;;;;;;3.63;1.92;;;19.50;88.80;;;;;;4992363;28;20038;-61
2021/07/05 01:22:34;;;;;;;1.67;1.55;;;19.50;88.90;;;;;;5004326;28;20255;-61
2021/07/05 01:24:59;;;;;;;2.10;1.42;;;19.40;88.90;;;;;;4992351;28;20389;-61
2021/07/05 01:27:25;;;;;;;4.00;1.67;;;19.50;89.00;;;;;;4992130;28;20383;-61
2021/07/05 01:29:50;;;;;;;2.95;1.73;;;19.50;89.00;;;;;;5006107;28;20054;-61
2021/07/05 01:32:16;;;;;;;2.05;1.50;;;19.40;89.30;;;;;;4974434;28;20053;-61
2021/07/05 01:34:42;;;;;;;1.40;1.20;;;19.40;89.10;;;;;;4992434;28;20029;-61
2021/07/05 01:37:08;;;;;;;1.35;1.20;;;19.40;89.20;;;;;;4989436;28;20090;-60
2021/07/05 01:39:34;;;;;;;2.83;1.73;;;19.40;89.20;;;;;;4989986;28;20101;-60
2021/07/05 01:41:59;;;;;;;5.25;1.33;;;19.30;89.20;;;;;;4989935;28;20289;-60
2021/07/05 01:44:25;;;;;;;2.40;1.60;;;19.40;89.40;;;;;;4992309;28;20066;-61
2021/07/05 01:46:50;;;;;;;3.25;1.30;;;19.30;89.30;;;;;;4974147;28;20292;-60
2021/07/05 01:49:16;;;;;;;1.40;1.30;;;19.30;89.30;;;;;;4974215;28;20483;-60
2021/07/05 01:51:41;;;;;;;1.33;1.23;;;19.30;89.30;;;;;;4991122;28;20568;-61
2021/07/05 01:54:07;;;;;;;1.60;1.13;;;19.30;89.30;;;;;;5006440;28;20030;-61
2021/07/05 01:56:32;;;;;;;2.03;1.10;;;19.30;89.30;;;;;;4973765;28;20026;-61
2021/07/05 01:58:58;;;;;;;3.58;1.40;;;19.30;89.40;;;;;;4991574;28;20050;-61
2021/07/05 02:01:24;;;;;;;2.40;1.15;;;19.30;89.40;;;;;;5004722;28;20026;-60
2021/07/05 02:03:49;;;;;;;4.93;1.60;;;19.20;89.40;;;;;;4981393;28;20113;-61
2021/07/05 02:06:15;;;;;;;2.70;1.50;;;19.20;89.50;;;;;;4968500;28;20066;-61
2021/07/05 02:08:41;;;;;;;5.03;1.45;;;19.20;89.50;;;;;;4990327;28;20027;-61
2021/07/05 02:11:07;;;;;;;3.17;1.05;;;19.20;89.50;;;;;;5006523;28;20019;-60
2021/07/05 02:13:34;;;;;;;2.28;1.40;;;19.20;89.60;;;;;;4990915;28;20027;-61
2021/07/05 02:16:00;;;;;;;1.88;1.13;;;19.20;89.60;;;;;;4990953;28;20045;-61
2021/07/05 02:18:26;;;;;;;2.30;1.50;;;19.20;89.60;;;;;;4981873;28;20018;-60
2021/07/05 02:20:51;;;;;;;2.30;1.38;;;19.10;89.50;;;;;;5012396;28;20045;-60
2021/07/05 02:23:18;;;;;;;3.35;1.52;;;19.10;89.50;;;;;;4995783;28;20382;-61
2021/07/05 02:25:44;;;;;;;3.60;1.20;;;19.20;89.60;;;;;;5000974;28;20433;-60
2021/07/05 02:28:13;;;;;;;1.20;1.10;;;19.10;89.50;;;;;;5010150;28;20017;-60
2021/07/05 02:30:39;;;;;;;1.40;1.30;;;19.10;89.50;;;;;;5003982;28;20186;-61
2021/07/05 02:33:05;;;;;;;2.03;1.30;;;19.10;89.50;;;;;;4991651;28;20026;-61
2021/07/05 02:35:31;;;;;;;1.80;0.90;;;19.10;89.50;;;;;;5010661;28;20358;-61
2021/07/05 02:37:58;;;;;;;1.92;1.20;;;19.10;89.60;;;;;;5009117;28;20372;-60
2021/07/05 02:40:25;;;;;;;2.42;1.15;;;19.10;89.70;;;;;;4992829;28;20026;-61
2021/07/05 02:42:51;;;;;;;1.50;1.08;;;19.10;89.70;;;;;;5025252;28;20026;-61
2021/07/05 02:45:22;;;;;;;1.52;1.05;;;19.00;89.70;;;;;;5026239;28;20018;-61
2021/07/05 02:47:58;;;;;;;1.38;1.08;;;19.00;89.60;;;;;;5009435;28;20026;-61
2021/07/05 02:50:24;;;;;;;2.10;1.00;;;19.00;89.70;;;;;;5010049;28;20036;-60
2021/07/05 02:52:50;;;;;;;1.10;1.00;;;19.00;89.80;;;;;;5008419;28;20029;-60
2021/07/05 02:55:15;;;;;;;1.52;1.13;;;19.00;89.80;;;;;;5025709;28;20401;-60
2021/07/05 02:57:44;;;;;;;1.00;0.90;;;19.00;89.80;;;;;;5028550;28;20038;-61
2021/07/05 03:00:14;;;;;;;2.40;1.15;;;19.00;89.70;;;;;;5009617;28;20024;-60
2021/07/05 03:02:40;;;;;;;2.05;1.17;;;18.90;89.70;;;;;;5022838;28;20389;-61
2021/07/05 03:05:07;;;;;;;2.92;0.93;;;18.90;89.80;;;;;;5025300;28;20026;-61
2021/07/05 03:07:33;;;;;;;1.55;1.00;;;18.90;90.20;;;;;;4992206;28;20037;-61
2021/07/05 03:09:58;;;;;;;1.50;1.17;;;18.90;89.80;;;;;;5009317;28;20022;-61
2021/07/05 03:12:24;;;;;;;1.20;1.10;;;18.90;89.80;;;;;;4994252;28;20034;-61
2021/07/05 03:14:49;;;;;;;1.63;0.93;;;18.90;89.80;;;;;;5025360;28;20021;-61
2021/07/05 03:17:15;;;;;;;2.53;1.17;;;18.90;89.90;;;;;;5009687;28;20029;-62
2021/07/05 03:19:40;;;;;;;5.05;1.63;;;18.80;89.80;;;;;;4988804;28;20034;-60
2021/07/05 03:22:06;;;;;;;1.42;0.85;;;18.80;89.90;;;;;;5008420;28;20064;-60
2021/07/05 03:24:32;;;;;;;1.83;1.15;;;18.80;89.90;;;;;;5008836;28;20406;-60
2021/07/05 03:26:57;;;;;;;1.65;1.08;;;18.80;89.90;;;;;;5009837;28;20061;-60
2021/07/05 03:29:23;;;;;;;4.28;1.17;;;18.80;89.90;;;;;;4972368;28;20069;-61
2021/07/05 03:31:48;;;;;;;2.25;1.20;;;18.80;89.90;;;;;;5007147;28;20066;-61
2021/07/05 03:34:14;;;;;;;2.70;1.13;;;18.80;89.90;;;;;;5016789;28;20053;-60
2021/07/05 03:36:39;;;;;;;1.50;1.02;;;18.80;90.00;;;;;;5023703;28;20046;-61
2021/07/05 03:39:05;;;;;;;2.10;1.00;;;18.80;89.90;;;;;;5024415;28;20261;-61
2021/07/05 03:41:31;;;;;;;1.15;1.00;;;18.80;89.80;;;;;;5017418;28;20030;-60
2021/07/05 03:43:56;;;;;;;1.98;1.10;;;18.70;90.00;;;;;;5021102;28;20048;-61
2021/07/05 03:46:22;;;;;;;0.98;0.88;;;18.70;89.80;;;;;;5023196;28;20088;-61
2021/07/05 03:48:47;;;;;;;3.28;0.90;;;18.70;89.90;;;;;;5023781;28;20057;-61
2021/07/05 03:51:13;;;;;;;2.33;0.90;;;18.70;89.90;;;;;;5014467;28;20041;-62
2021/07/05 03:53:38;;;;;;;2.47;0.90;;;18.70;90.20;;;;;;5012844;28;20053;-61
2021/07/05 03:56:04;;;;;;;3.13;1.08;;;18.70;90.00;;;;;;5026856;28;20082;-61
2021/07/05 03:58:30;;;;;;;3.85;1.05;;;18.70;90.00;;;;;;4989638;28;20523;-61
2021/07/05 04:00:59;;;;;;;1.10;1.00;;;18.70;90.00;;;;;;4990428;28;20049;-60
2021/07/05 04:03:24;;;;;;;1.63;1.00;;;18.60;90.00;;;;;;5009139;28;20022;-61
2021/07/05 04:05:51;;;;;;;1.15;1.05;;;18.60;90.00;;;;;;5001527;28;20148;-60
2021/07/05 04:08:17;;;;;;;1.60;1.15;;;18.60;90.00;;;;;;5008616;28;20022;-61
2021/07/05 04:10:42;;;;;;;1.98;0.80;;;18.70;90.00;;;;;;4986329;28;20089;-61
2021/07/05 04:13:10;;;;;;;4.65;1.20;;;18.70;90.00;;;;;;5021549;28;20026;-61
2021/07/05 04:15:36;;;;;;;3.00;1.00;;;18.60;90.30;;;;;;5005056;28;20046;-60
2021/07/05 04:18:01;;;;;;;1.42;0.77;;;18.60;90.30;;;;;;5001976;28;20061;-61
2021/07/05 04:20:27;;;;;;;1.10;0.93;;;18.60;90.00;;;;;;5018997;28;20049;-61
2021/07/05 04:22:53;;;;;;;4.45;0.93;;;18.60;90.00;;;;;;5005032;28;20045;-60
2021/07/05 04:25:18;;;;;;;2.67;0.90;;;18.60;90.00;;;;;;5007137;28;20389;-61
2021/07/05 04:27:44;;;;;;;3.63;1.05;;;18.60;90.00;;;;;;5005237;28;20506;-61
2021/07/05 04:30:11;;;;;;;1.15;1.05;;;18.60;90.00;;;;;;5020632;28;20692;-61
2021/07/05 04:32:37;;;;;;;1.02;0.90;;;18.60;90.00;;;;;;5018227;28;20548;-60
2021/07/05 04:35:05;;;;;;;4.70;0.98;;;18.60;90.00;;;;;;4993489;28;20021;-61
2021/07/05 04:37:31;;;;;;;3.38;1.17;;;18.60;90.00;;;;;;4988262;28;20027;-61
2021/07/05 04:39:56;;;;;;;1.95;1.13;;;18.60;90.00;;;;;;5008981;28;20033;-60
2021/07/05 04:42:22;;;;;;;3.53;1.10;;;18.60;90.00;;;;;;5018133;28;20036;-60
2021/07/05 04:44:50;;;;;;;1.83;0.90;;;18.60;90.00;;;;;;5008095;28;20405;-61
2021/07/05 04:47:15;;;;;;;3.28;1.20;;;18.60;90.00;;;;;;5008644;28;20026;-60
2021/07/05 04:49:41;;;;;;;3.80;1.20;;;18.60;90.30;;;;;;5020711;28;20393;-61
2021/07/05 04:52:07;;;;;;;3.25;1.10;;;18.60;90.00;;;;;;5012960;28;20025;-60
2021/07/05 04:54:32;;;;;;;1.85;1.10;;;18.60;90.10;;;;;;5011780;28;20394;-60
2021/07/05 04:56:58;;;;;;;2.08;1.10;;;18.70;90.10;;;;;;5003387;28;20357;-61
2021/07/05 04:59:25;;;;;;;3.38;1.25;;;18.70;90.10;;;;;;5023879;28;20140;-60
2021/07/05 05:01:50;;;;;;;1.25;1.00;;;18.70;90.10;;;;;;4991549;28;20066;-61
2021/07/05 05:04:16;;;;;;;7.80;1.25;;;18.70;90.10;;;;;;5012081;28;20088;-60
2021/07/05 05:06:42;;;;;;;9.75;1.23;;;18.70;90.00;;;;;;5012577;28;20030;-61
2021/07/05 05:09:07;;;;;;;6.15;1.25;;;18.70;90.00;;;;;;5005028;28;20088;-60
2021/07/05 05:11:33;;;;;;;2.92;1.20;;;18.70;90.10;;;;;;4991035;28;20120;-60
2021/07/05 05:13:58;;;;;;;3.58;1.35;;;18.70;90.10;;;;;;5012057;28;20508;-60
2021/07/05 05:16:24;;;;;;;3.88;1.20;;;18.70;90.10;;;;;;4994869;28;20474;-60
2021/07/05 05:18:49;;;;;;;3.08;1.38;;;18.70;90.10;;;;;;5010353;28;20120;-60
2021/07/05 05:21:15;;;;;;;5.40;1.63;;;18.70;90.00;;;;;;5006444;28;20165;-61
2021/07/05 05:23:40;;;;;;;4.53;1.10;;;18.70;90.00;;;;;;5010632;28;20084;-61
2021/07/05 05:26:07;;;;;;;4.60;1.30;;;18.70;90.10;;;;;;4980783;28;20026;-61
2021/07/05 05:28:33;;;;;;;10.15;1.58;;;18.70;90.00;;;;;;5006054;28;20041;-61
2021/07/05 05:30:58;;;;;;;7.10;1.58;;;18.70;90.10;;;;;;5029554;28;20175;-60
2021/07/05 05:33:24;;;;;;;4.75;1.40;;;18.70;90.20;;;;;;4995136;28;20030;-61
2021/07/05 05:35:50;;;;;;;4.72;1.30;;;18.70;90.20;;;;;;5026458;28;20096;-60
2021/07/05 05:38:16;;;;;;;2.97;1.65;;;18.80;90.20;;;;;;5009227;28;20470;-60
2021/07/05 05:40:41;;;;;;;3.92;1.30;;;18.70;90.20;;;;;;5013327;28;20040;-62
2021/07/05 05:43:08;;;;;;;4.07;1.45;;;18.80;90.30;;;;;;4993659;28;20045;-61
2021/07/05 05:45:35;;;;;;;7.90;1.67;;;18.80;90.30;;;;;;5014448;28;20022;-61
2021/07/05 05:48:01;;;;;;;9.82;2.05;;;18.80;90.50;;;;;;5023667;28;20477;-60
2021/07/05 05:50:26;;;;;;;5.97;2.13;;;18.80;90.50;;;;;;5008616;28;20033;-61
2021/07/05 05:52:52;;;;;;;8.25;2.17;;;18.80;91.00;;;;;;5010822;28;20018;-61
2021/07/05 05:55:17;;;;;;;6.38;2.25;;;18.90;91.10;;;;;;5026848;28;20042;-60
2021/07/05 05:57:43;;;;;;;2.95;1.65;;;18.90;91.00;;;;;;5008695;28;20068;-61
2021/07/05 06:00:15;;;;;;;4.53;1.70;;;18.90;90.90;;;;;;4980014;28;20073;-61
2021/07/05 06:02:40;;;;;;;11.55;2.20;;;18.90;90.60;;;;;;5007342;28;20040;-62
2021/07/05 06:05:07;;;;;;;4.07;1.85;;;18.90;90.70;;;;;;5010058;28;20029;-61
2021/07/05 06:07:32;;;;;;;4.97;1.65;;;18.90;90.50;;;;;;5022388;28;20034;-61
2021/07/05 06:09:58;;;;;;;12.07;2.25;;;18.90;90.40;;;;;;4996519;28;20504;-62
2021/07/05 06:12:23;;;;;;;10.98;2.13;;;19.00;90.40;;;;;;5027052;28;20045;-60
2021/07/05 06:14:49;;;;;;;6.93;1.85;;;19.00;90.50;;;;;;5011178;28;20077;-61
2021/07/05 06:17:14;;;;;;;9.75;2.10;;;19.00;90.40;;;;;;5013958;28;20445;-61
2021/07/05 06:19:40;;;;;;;9.18;2.28;;;19.00;90.40;;;;;;5011168;28;20026;-61
2021/07/05 06:22:13;;;;;;;12.48;2.00;;;19.00;90.40;;;;;;4990212;28;20445;-61
2021/07/05 06:24:38;;;;;;;10.10;1.90;;;19.00;90.40;;;;;;5004190;28;20068;-61
2021/07/05 06:27:04;;;;;;;6.18;1.65;;;19.00;90.40;;;;;;5008851;28;20046;-61
2021/07/05 06:29:30;;;;;;;6.90;2.15;;;19.10;90.50;;;;;;5009815;28;20593;-61
2021/07/05 06:31:55;;;;;;;8.07;1.75;;;19.00;90.40;;;;;;5005989;28;20030;-61
2021/07/05 06:34:21;;;;;;;5.88;2.20;;;19.00;90.50;;;;;;5006444;28;20034;-61
2021/07/05 06:36:46;;;;;;;4.30;1.77;;;19.10;90.40;;;;;;5024211;28;20053;-61
2021/07/05 06:39:12;;;;;;;8.82;2.00;;;19.10;90.40;;;;;;5012635;28;20030;-61
2021/07/05 06:41:37;;;;;;;8.98;1.90;;;19.10;90.40;;;;;;5014795;28;20026;-61
2021/07/05 06:44:03;;;;;;;10.48;1.95;;;19.10;90.40;;;;;;4991787;28;20096;-60
2021/07/05 06:46:28;;;;;;;5.63;2.30;;;19.10;90.40;;;;;;5007483;28;20050;-61
2021/07/05 06:48:55;;;;;;;8.13;2.05;;;19.10;90.50;;;;;;5007980;28;20034;-61
2021/07/05 06:51:20;;;;;;;8.63;1.52;;;19.10;90.50;;;;;;5021058;28;20030;-62
2021/07/05 06:53:46;;;;;;;6.70;1.95;;;19.20;90.50;;;;;;4989926;28;20113;-61
2021/07/05 06:56:15;;;;;;;8.45;1.77;;;19.20;90.50;;;;;;5009741;28;20045;-60
2021/07/05 06:58:41;;;;;;;9.38;1.77;;;19.20;90.30;;;;;;5002597;28;20077;-60
2021/07/05 07:01:06;;;;;;;7.75;1.80;;;19.20;90.30;;;;;;4969549;28;20030;-61
2021/07/05 07:03:32;;;;;;;12.07;2.33;;;19.20;90.30;;;;;;4988845;28;20608;-61
2021/07/05 07:05:57;;;;;;;9.13;2.00;;;19.30;90.60;;;;;;4990690;28;20127;-60
2021/07/05 07:08:23;;;;;;;8.60;2.20;;;19.20;90.80;;;;;;5005714;28;20494;-61
2021/07/05 07:10:49;;;;;;;5.38;1.70;;;19.30;91.00;;;;;;5004489;28;20038;-61
2021/07/05 07:13:16;;;;;;;7.30;1.75;;;19.30;91.10;;;;;;4970194;28;20546;-61
2021/07/05 07:15:46;;;;;;;8.40;1.58;;;19.30;91.40;;;;;;5003253;28;20061;-60
2021/07/05 07:20:55;;;;;;;59.08;4.60;;;19.20;91.70;;;;;;4983300;28;20061;-60
2021/07/05 07:23:20;;;;;;;34.83;3.38;;;19.20;91.70;;;;;;4997794;28;20485;-61
2021/07/05 07:25:46;;;;;;;27.40;2.83;;;19.20;91.70;;;;;;4982470;28;20049;-60
2021/07/05 07:28:11;;;;;;;12.73;1.92;;;19.20;91.70;;;;;;4981697;28;20042;-61
2021/07/05 07:30:37;;;;;;;23.08;2.65;;;19.30;91.90;;;;;;5009706;28;20041;-61
2021/07/05 07:33:04;;;;;;;30.00;3.28;;;19.20;91.80;;;;;;4970547;28;20044;-61
2021/07/05 07:35:29;;;;;;;11.23;2.08;;;19.30;91.80;;;;;;4999453;28;20054;-60
2021/07/05 07:37:55;;;;;;;22.67;1.75;;;19.30;91.90;;;;;;4989916;28;20036;-61
2021/07/05 07:40:29;;;;;;;7.70;1.75;;;19.30;91.80;;;;;;4982292;28;21437;-61
2021/07/05 07:42:55;;;;;;;22.98;2.60;;;19.30;91.70;;;;;;4996845;28;20072;-60
2021/07/05 07:45:20;;;;;;;10.82;1.83;;;19.40;91.60;;;;;;4968773;28;20515;-60
2021/07/05 07:47:46;;;;;;;18.02;2.10;;;19.40;91.60;;;;;;4980657;28;20037;-60
2021/07/05 07:50:13;;;;;;;16.90;3.00;;;19.40;91.50;;;;;;4998265;28;20042;-60
2021/07/05 07:52:39;;;;;;;44.92;4.88;;;19.40;91.40;;;;;;4998152;28;20054;-60
2021/07/05 07:55:06;;;;;;;31.33;4.20;;;19.40;91.20;;;;;;4980896;28;20108;-60
2021/07/05 07:57:31;;;;;;;26.40;2.92;;;19.40;91.20;;;;;;4984793;28;20038;-61
2021/07/05 07:59:57;;;;;;;46.40;4.53;;;19.40;91.10;;;;;;4961370;28;20041;-60
2021/07/05 08:02:22;;;;;;;41.25;4.32;;;19.50;91.00;;;;;;4988902;28;20033;-61
2021/07/05 08:04:48;;;;;;;33.15;3.67;;;19.40;91.00;;;;;;4982356;28;20041;-60
2021/07/05 08:07:13;;;;;;;13.07;2.00;;;19.50;91.00;;;;;;4985597;28;20050;-60
2021/07/05 08:09:39;;;;;;;17.88;2.72;;;19.50;90.90;;;;;;4978219;28;20030;-60
2021/07/05 08:12:07;;;;;;;40.35;3.80;;;19.50;90.80;;;;;;4978527;28;20148;-60
2021/07/05 08:14:32;;;;;;;33.08;3.80;;;19.50;90.80;;;;;;4983295;28;20026;-60
2021/07/05 08:16:58;;;;;;;46.88;5.07;;;19.60;90.90;;;;;;4996047;28;20182;-61
2021/07/05 08:19:23;;;;;;;41.80;4.35;;;19.60;90.90;;;;;;4984471;28;20728;-60
2021/07/05 08:21:49;;;;;;;90.15;9.02;;;19.60;91.50;;;;;;4997575;28;20061;-60
2021/07/05 08:24:14;;;;;;;44.95;4.00;;;19.60;91.50;;;;;;4989979;28;20588;-60
2021/07/05 08:26:40;;;;;;;26.13;3.33;;;19.70;91.30;;;;;;4982058;28;20054;-60
2021/07/05 08:29:06;;;;;;;41.65;4.40;;;19.70;91.10;;;;;;4983312;28;20029;-60
2021/07/05 08:31:31;;;;;;;45.75;4.03;;;19.70;91.00;;;;;;4981201;28;20054;-60
2021/07/05 08:33:59;;;;;;;12.27;3.08;;;19.70;91.20;;;;;;4995946;28;20539;-60
2021/07/05 08:36:24;;;;;;;31.88;4.32;;;19.70;91.50;;;;;;4986245;28;20030;-60
2021/07/05 08:38:50;;;;;;;41.53;4.10;;;19.70;91.50;;;;;;4967328;28;20576;-60
2021/07/05 08:41:16;;;;;;;36.55;4.38;;;19.80;91.60;;;;;;4979239;28;20073;-60
2021/07/05 08:43:43;;;;;;;32.38;3.40;;;19.80;91.70;;;;;;4999310;28;20105;-60
2021/07/05 08:46:08;;;;;;;78.05;6.05;;;19.80;91.60;;;;;;4967241;28;20058;-60
2021/07/05 08:48:35;;;;;;;44.67;4.60;;;19.90;91.30;;;;;;5002071;28;20064;-62
2021/07/05 08:51:02;;;;;;;23.85;3.40;;;19.80;91.50;;;;;;4989019;28;20036;-60
2021/07/05 08:53:28;;;;;;;63.80;7.13;;;19.90;91.30;;;;;;5002197;28;20442;-61
2021/07/05 08:55:53;;;;;;;49.22;5.43;;;19.90;91.30;;;;;;4999458;28;20030;-60
2021/07/05 08:58:19;;;;;;;40.90;4.50;;;19.90;91.30;;;;;;4979617;28;20034;-61
2021/07/05 09:00:44;;;;;;;29.70;3.20;;;19.90;91.00;;;;;;4980302;28;20041;-61
2021/07/05 09:03:10;;;;;;;41.13;4.18;;;19.90;90.90;;;;;;4984982;28;20038;-61
2021/07/05 09:05:36;;;;;;;24.50;3.05;;;19.90;90.80;;;;;;4989086;28;20052;-60
2021/07/05 09:08:05;;;;;;;51.78;4.28;;;20.00;90.50;;;;;;4986838;28;20046;-61
2021/07/05 09:10:47;;;;;;;31.40;3.75;;;20.10;90.30;;;;;;4986278;28;20046;-61
2021/07/05 09:13:23;;;;;;;28.35;2.88;;;20.10;90.30;;;;;;4963460;28;20026;-61
2021/07/05 09:15:51;;;;;;;45.22;5.10;;;20.10;90.20;;;;;;5000211;28;20042;-61
2021/07/05 09:18:31;;;;;;;49.65;4.40;;;20.10;90.30;;;;;;4997402;28;20061;-61
2021/07/05 09:21:37;;;;;;;42.85;4.45;;;20.20;90.30;;;;;;4988265;28;20045;-60
2021/07/05 09:24:05;;;;;;;52.53;4.43;;;20.20;90.20;;;;;;4972260;28;20438;-61
2021/07/05 09:26:34;;;;;;;62.47;7.30;;;20.20;90.00;;;;;;5001574;28;20069;-60
2021/07/05 09:29:02;;;;;;;43.47;4.95;;;20.20;89.90;;;;;;4983523;28;20089;-60
2021/07/05 09:31:38;;;;;;;35.08;4.05;;;20.30;90.00;;;;;;4987247;28;20606;-60
2021/07/05 09:34:04;;;;;;;62.78;6.85;;;20.30;89.90;;;;;;4983041;28;20434;-60
2021/07/05 09:36:30;;;;;;;34.80;4.07;;;20.40;89.70;;;;;;4982779;28;20465;-61
2021/07/05 09:38:56;;;;;;;44.83;5.70;;;20.40;89.80;;;;;;5002538;28;20064;-60
2021/07/05 09:41:25;;;;;;;57.42;5.88;;;20.50;89.60;;;;;;5001266;28;20033;-61
2021/07/05 09:44:02;;;;;;;62.38;5.35;;;20.50;89.50;;;;;;4985343;28;20099;-61
2021/07/05 09:47:02;;;;;;;71.47;6.82;;;20.50;89.90;;;;;;4985358;28;20092;-60
2021/07/05 09:49:31;;;;;;;59.03;6.80;;;20.60;90.00;;;;;;4974243;28;20057;-60
2021/07/05 09:52:11;;;;;;;101.50;9.00;;;20.70;90.00;;;;;;4983411;28;20034;-60
2021/07/05 09:54:39;;;;;;;81.80;8.32;;;20.70;89.90;;;;;;4985113;28;20917;-61
2021/07/05 09:57:05;;;;;;;82.75;6.95;;;20.80;89.50;;;;;;4982204;28;20026;-61
2021/07/05 09:59:31;;;;;;;76.65;8.20;;;20.90;88.90;;;;;;4980012;28;20030;-60
2021/07/05 10:01:57;;;;;;;91.70;8.43;;;20.90;88.10;;;;;;5001493;28;20022;-60
2021/07/05 10:04:29;;;;;;;70.75;8.27;;;21.00;87.90;;;;;;5000410;28;20391;-59
2021/07/05 10:06:56;;;;;;;90.43;11.13;;;21.00;87.50;;;;;;4985298;28;20168;-60
2021/07/05 10:09:42;;;;;;;106.00;13.35;;;21.10;87.20;;;;;;4985255;28;20060;-60
2021/07/05 10:12:26;;;;;;;88.28;7.05;;;21.10;86.00;;;;;;4966998;28;20120;-60
2021/07/05 10:14:52;;;;;;;86.45;8.32;;;21.20;85.10;;;;;;5002757;28;20033;-60
2021/07/05 10:17:17;;;;;;;111.47;8.55;;;21.20;84.80;;;;;;4983656;28;20034;-59
2021/07/05 10:19:43;;;;;;;87.85;7.97;;;21.30;84.30;;;;;;4966666;28;21399;-60
2021/07/05 10:22:12;;;;;;;95.78;9.10;;;21.30;83.70;;;;;;4985635;28;20061;-64
2021/07/05 10:24:37;;;;;;;77.78;8.70;;;21.30;83.50;;;;;;4968947;28;20044;-60
2021/07/05 10:27:03;;;;;;;86.85;9.57;;;21.20;83.20;;;;;;5001349;28;20038;-60
2021/07/05 10:29:32;;;;;;;102.25;10.48;;;21.30;82.90;;;;;;4979722;28;24537;-60
2021/07/05 10:31:57;;;;;;;100.13;10.45;;;21.30;83.00;;;;;;4998380;28;20026;-60
2021/07/05 10:34:23;;;;;;;90.72;9.57;;;21.40;83.10;;;;;;4980499;28;20030;-60
2021/07/05 10:36:48;;;;;;;88.10;8.00;;;21.40;82.20;;;;;;4982260;28;20490;-60
2021/07/05 10:39:14;;;;;;;118.32;12.30;;;21.40;82.00;;;;;;4983981;28;20038;-60
2021/07/05 10:41:40;;;;;;;110.82;9.32;;;21.40;82.00;;;;;;4961833;28;20776;-61
2021/07/05 10:44:08;;;;;;;123.85;9.63;;;21.50;81.70;;;;;;4983185;28;20121;-60
2021/07/05 10:46:38;;;;;;;96.80;8.38;;;21.50;81.80;;;;;;4979969;28;20030;-60
2021/07/05 10:49:04;;;;;;;106.28;10.25;;;21.50;81.40;;;;;;4980551;28;20041;-61
2021/07/05 10:51:43;;;;;;;81.20;8.25;;;21.60;81.20;;;;;;4986298;28;20034;-60
2021/07/05 10:54:09;;;;;;;110.88;11.27;;;21.60;81.20;;;;;;4980694;28;20060;-60
2021/07/05 10:56:41;;;;;;;117.80;10.82;;;21.70;81.10;;;;;;4983904;28;20045;-60
2021/07/05 10:59:13;;;;;;;160.65;14.13;;;21.70;80.90;;;;;;4994006;28;20422;-61
2021/07/05 11:01:42;;;;;;;85.72;10.75;;;21.80;81.00;;;;;;4984397;28;20061;-60
2021/07/05 11:04:31;;;;;;;78.47;9.63;;;21.80;80.70;;;;;;4999545;28;20081;-59
2021/07/05 11:06:58;;;;;;;86.22;8.20;;;21.80;80.40;;;;;;4984383;28;20057;-60
2021/07/05 11:09:24;;;;;;;76.45;8.38;;;21.80;80.40;;;;;;4981438;28;20045;-61
2021/07/05 11:11:55;;;;;;;75.75;7.40;;;22.00;80.40;;;;;;4999993;28;20045;-61
2021/07/05 11:14:23;;;;;;;104.13;9.52;;;21.90;80.40;;;;;;5003048;28;20129;-61
2021/07/05 11:17:17;;;;;;;117.38;12.73;;;22.00;80.20;;;;;;5007961;28;20022;-60
2021/07/05 11:19:47;;;;;;;80.93;7.88;;;22.00;80.30;;;;;;5006040;28;20229;-61
2021/07/05 11:22:21;;;;;;;145.00;14.65;;;22.00;80.30;;;;;;5006202;28;20042;-61
2021/07/05 11:25:10;;;;;;;71.35;7.80;;;22.10;80.10;;;;;;4999709;28;20022;-61
2021/07/05 11:27:51;;;;;;;76.88;7.95;;;22.10;79.50;;;;;;5007121;28;20030;-60
2021/07/05 11:30:18;;;;;;;82.72;7.93;;;22.30;79.30;;;;;;4990993;28;20026;-61
2021/07/05 11:32:49;;;;;;;72.80;8.38;;;22.30;79.10;;;;;;5007371;28;20117;-61
2021/07/05 11:35:43;;;;;;;109.95;9.27;;;22.40;78.70;;;;;;5031256;28;20033;-61
2021/07/05 11:38:29;;;;;;;140.07;13.40;;;22.50;78.40;;;;;;5001965;28;20117;-61
2021/07/05 11:41:05;;;;;;;76.35;7.78;;;22.50;78.10;;;;;;4994143;28;20018;-61
2021/07/05 11:43:45;;;;;;;;;;;22.60;77.80;;;;;;5019465;28;20033;-62
2021/07/05 11:46:10;;;;;;;72.57;5.80;;;22.60;78.40;;;;;;4984227;28;19932;-61
2021/07/05 11:48:39;;;;;;;55.92;6.50;;;22.70;77.30;;;;;;4987565;28;20022;-61
2021/07/05 11:51:31;;;;;;;64.10;7.38;;;22.70;77.00;;;;;;5004944;28;20025;-61
2021/07/05 11:54:02;;;;;;;56.38;6.72;;;22.70;76.80;;;;;;4986746;28;20561;-61
2021/07/05 11:56:31;;;;;;;46.58;5.15;;;22.70;76.50;;;;;;5006238;28;20474;-61
2021/07/05 11:58:58;;;;;;;52.40;6.55;;;22.70;76.70;;;;;;5005287;28;20084;-61
2021/07/05 12:01:25;;;;;;;58.65;6.40;;;22.80;77.50;;;;;;4976398;28;20025;-62
2021/07/05 12:03:52;;;;;;;47.42;4.82;;;22.70;77.40;;;;;;5002015;28;20465;-61
2021/07/05 12:06:18;;;;;;;46.33;5.07;;;22.80;77.40;;;;;;5006852;28;20164;-61
2021/07/05 12:08:53;;;;;;;43.67;5.22;;;22.80;77.20;;;;;;5007576;28;20497;-61
2021/07/05 12:11:36;;;;;;;47.42;5.88;;;22.80;76.40;;;;;;5004583;28;20079;-62
2021/07/05 12:14:06;;;;;;;44.33;5.32;;;22.90;76.30;;;;;;5000471;28;20494;-61
2021/07/05 12:16:31;;;;;;;36.15;4.63;;;22.90;76.10;;;;;;5005331;28;20521;-60
2021/07/05 12:18:58;;;;;;;48.42;5.88;;;22.90;76.30;;;;;;4974564;28;20041;-62
2021/07/05 12:21:33;;;;;;;79.53;6.07;;;22.90;77.00;;;;;;4988563;28;20042;-60
2021/07/05 12:24:11;;;;;;;49.45;6.22;;;23.00;75.70;;;;;;5010004;28;20022;-60
2021/07/05 12:27:01;;;;;;;78.82;6.78;;;23.00;76.40;;;;;;5023570;28;20069;-62
2021/07/05 12:29:38;;;;;;;43.60;5.43;;;23.00;75.80;;;;;;4998904;28;20490;-62
2021/07/05 12:32:37;;;;;;;77.03;7.53;;;23.00;75.90;;;;;;5005638;28;20124;-60
2021/07/05 12:35:09;;;;;;;92.97;6.57;;;23.00;75.90;;;;;;4990887;28;20470;-61
2021/07/05 12:37:39;;;;;;;102.25;9.88;;;23.10;75.80;;;;;;5021932;28;20088;-61
2021/07/05 12:40:08;;;;;;;57.50;6.43;;;23.10;75.90;;;;;;4990109;28;20045;-62
2021/07/05 12:42:38;;;;;;;63.38;6.68;;;23.10;76.10;;;;;;5006644;28;20036;-61
2021/07/05 12:45:07;;;;;;;65.93;6.65;;;23.10;76.30;;;;;;4972869;28;20025;-62
2021/07/05 12:47:32;;;;;;;89.50;7.38;;;23.10;76.30;;;;;;5008027;28;20069;-61